Time;durP1;ratioP1;P1;durP2;ratioP2;P2;SDS_P1;SDS_P2;PMS_P1;PMS_P2;Temp;Humidity;BMP_temperature;BMP_pressure;BME280_temperature;BME280_humidity;BME280_pressure;Samples;Min_cycle;Max_cycle;Signal;HPM_P1;HPM_P2
2022/01/25 06:21:06;;;;;;;;;;;25.40;46.70;;;;;;3741361;22;2237885;-90
2022/01/25 06:22:38;;;;;;;;;;;25.40;46.50;;;;;;3838936;23;19920;-89
2022/01/25 06:24:10;;;;;;;;;;;25.50;47.50;;;;;;3838369;23;19924;-89
2022/01/25 06:25:42;;;;;;;;;;;25.40;46.50;;;;;;3836668;23;19946;-90
2022/01/25 06:27:14;;;;;;;;;;;25.40;46.50;;;;;;3821208;23;20268;-90
2022/01/25 06:28:45;;;;;;;;;;;25.40;46.60;;;;;;3820004;23;19927;-89
2022/01/25 06:30:17;;;;;;;;;;;25.40;46.70;;;;;;3816582;23;20259;-91
2022/01/25 06:31:49;;;;;;;;;;;25.30;46.70;;;;;;3784636;23;20460;-90
2022/01/25 06:33:21;;;;;;;;;;;25.30;46.70;;;;;;3782569;23;19921;-90
2022/01/25 06:34:53;;;;;;;;;;;25.30;46.70;;;;;;3784489;23;20365;-90
2022/01/25 06:36:26;;;;;;;;;;;25.30;46.70;;;;;;3783339;23;19921;-90
2022/01/25 06:37:58;;;;;;;;;;;25.30;46.70;;;;;;3784040;23;19922;-90
2022/01/25 06:39:30;;;;;;;;;;;25.20;46.70;;;;;;3783915;23;19964;-91
2022/01/25 06:41:02;;;;;;;;;;;25.20;46.70;;;;;;3783536;23;19925;-90
2022/01/25 06:42:35;;;;;;;;;;;25.20;46.70;;;;;;3783781;23;19929;-90
2022/01/25 06:44:07;;;;;;;;;;;25.20;46.70;;;;;;3783433;23;19949;-90
2022/01/25 06:45:41;;;;;;;;;;;25.10;46.60;;;;;;3783325;23;19937;-90
2022/01/25 06:47:12;;;;;;;;;;;25.10;47.20;;;;;;3783762;23;19925;-92
2022/01/25 06:48:44;;;;;;;;;;;25.10;46.70;;;;;;3782833;23;20000;-90
2022/01/25 06:53:55;;;;;;;;;;;25.10;46.70;;;;;;3759018;23;19930;-93
2022/01/25 06:55:27;;;;;;;;;;;25.10;46.80;;;;;;3770141;23;20380;-91
2022/01/25 07:04:18;;;;;;;;;;;25.00;46.70;;;;;;3764595;23;19944;-92
2022/01/25 07:06:26;;;;;;;;;;;25.00;46.70;;;;;;3779596;23;20258;-91
2022/01/25 07:08:03;;;;;;;;;;;25.00;46.70;;;;;;3774038;23;20035;-94
2022/01/25 07:09:41;;;;;;;;;;;24.90;46.60;;;;;;3805279;23;19928;-92
2022/01/25 07:11:14;;;;;;;;;;;24.90;46.70;;;;;;3792234;23;19928;-92
2022/01/25 07:12:48;;;;;;;;;;;24.90;46.70;;;;;;3783331;23;19928;-94
2022/01/25 07:14:21;;;;;;;;;;;24.90;46.60;;;;;;3791306;23;20525;-94
2022/01/25 07:15:54;;;;;;;;;;;24.90;46.60;;;;;;3788550;23;19921;-93
2022/01/25 07:17:26;;;;;;;;;;;24.90;46.60;;;;;;3788526;23;19947;-92
2022/01/25 07:19:00;;;;;;;;;;;24.80;46.50;;;;;;3790364;23;20380;-93
2022/01/25 07:20:32;;;;;;;;;;;24.80;46.50;;;;;;3805188;23;19928;-93
2022/01/25 07:22:05;;;;;;;;;;;24.80;46.50;;;;;;3808139;23;19925;-91
2022/01/25 07:23:38;;;;;;;;;;;24.80;46.50;;;;;;3804549;23;19949;-93
2022/01/25 07:25:11;;;;;;;;;;;24.80;46.50;;;;;;3807431;23;19948;-92
2022/01/25 07:28:43;;;;;;;;;;;24.80;46.60;;;;;;3797328;23;20000;-94
2022/01/25 07:30:16;;;;;;;;;;;24.70;46.50;;;;;;3806194;23;19921;-94
2022/01/25 09:02:21;;;;;;;;;;;26.10;49.50;;;;;;3818441;23;19972;-90
2022/01/25 09:04:25;;;;;;;;;;;26.20;49.00;;;;;;3814818;23;19921;-90
2022/01/25 09:08:06;;;;;;;;;;;26.30;50.50;;;;;;3817684;23;19947;-89
2022/01/25 10:45:39;;;;;;;;;;;28.10;51.10;;;;;;3825474;23;19921;-89
2022/01/25 10:54:31;;;;;;;;;;;28.20;50.70;;;;;;3786109;23;19909;-88
2022/01/25 13:50:44;;;;;;;;;;;26.30;38.60;;;;;;3818360;23;19924;-90
2022/01/25 13:52:16;;;;;;;;;;;26.30;39.50;;;;;;3817617;23;20240;-88
2022/01/25 13:53:52;;;;;;;;;;;26.30;39.00;;;;;;3799819;23;19921;-88
2022/01/25 13:55:24;;;;;;;;;;;26.30;39.20;;;;;;3800978;23;19929;-89
2022/01/25 13:56:55;;;;;;;;;;;26.30;39.20;;;;;;3800866;23;19952;-92
2022/01/25 13:58:27;;;;;;;;;;;26.30;39.10;;;;;;3800668;23;19921;-88
2022/01/25 13:59:59;;;;;;;;;;;26.30;39.50;;;;;;3799939;23;19921;-91
2022/01/25 14:01:32;;;;;;;;;;;26.30;39.30;;;;;;3815660;23;19920;-88
2022/01/25 14:03:04;;;;;;;;;;;26.30;39.20;;;;;;3816797;23;20347;-89
2022/01/25 14:04:38;;;;;;;;;;;26.20;39.00;;;;;;3818966;23;19976;-90
2022/01/25 14:06:24;;;;;;;;;;;26.20;39.00;;;;;;3819016;23;20347;-90
2022/01/25 14:07:56;;;;;;;;;;;26.20;39.00;;;;;;3818337;23;20311;-90
2022/01/25 14:09:30;;;;;;;;;;;26.20;38.90;;;;;;3818080;23;20342;-89
2022/01/25 14:11:05;;;;;;;;;;;26.20;39.00;;;;;;3818165;23;20003;-91
2022/01/25 14:21:56;;;;;;;;;;;26.20;39.20;;;;;;3820756;23;20126;-88
2022/01/25 14:23:29;;;;;;;;;;;26.10;39.30;;;;;;3818456;23;19921;-87
2022/01/25 14:25:01;;;;;;;;;;;26.00;39.30;;;;;;3819175;23;19921;-90
2022/01/25 14:26:33;;;;;;;;;;;26.00;39.40;;;;;;3819828;23;19967;-90
2022/01/25 14:28:05;;;;;;;;;;;26.00;39.50;;;;;;3817537;23;19928;-90
2022/01/25 14:29:40;;;;;;;;;;;26.00;39.70;;;;;;3820177;23;19940;-89
2022/01/25 14:31:15;;;;;;;;;;;26.00;39.80;;;;;;3819362;23;20358;-90
2022/01/25 14:32:56;;;;;;;;;;;26.00;39.80;;;;;;3817864;23;19921;-89
2022/01/25 14:34:29;;;;;;;;;;;25.90;39.90;;;;;;3819309;23;19921;-89
2022/01/25 14:36:01;;;;;;;;;;;26.00;39.90;;;;;;3818263;23;19967;-92
2022/01/25 14:37:34;;;;;;;;;;;26.00;39.80;;;;;;3819271;23;19928;-91
2022/01/25 14:39:06;;;;;;;;;;;26.10;39.50;;;;;;3819840;23;19931;-91
2022/01/25 14:40:38;;;;;;;;;;;26.10;39.40;;;;;;3819363;23;19920;-92
2022/01/25 14:42:10;;;;;;;;;;;26.10;39.60;;;;;;3819517;23;20045;-89
2022/01/25 14:43:46;;;;;;;;;;;26.20;39.60;;;;;;3816815;23;19927;-89
2022/01/25 14:45:20;;;;;;;;;;;26.20;39.30;;;;;;3818269;23;19921;-89
2022/01/25 14:46:53;;;;;;;;;;;26.10;39.40;;;;;;3819781;23;19929;-87
2022/01/25 14:48:25;;;;;;;;;;;26.10;39.60;;;;;;3817771;23;19928;-88
2022/01/25 14:49:59;;;;;;;;;;;26.00;39.40;;;;;;3818451;23;19921;-88
2022/01/25 14:51:34;;;;;;;;;;;26.00;39.30;;;;;;3819369;23;20263;-89
2022/01/25 14:53:08;;;;;;;;;;;26.00;39.30;;;;;;3819692;23;19920;-90
2022/01/25 14:54:41;;;;;;;;;;;25.90;39.20;;;;;;3821160;23;20283;-89
2022/01/25 14:56:14;;;;;;;;;;;25.90;39.50;;;;;;3819120;23;19927;-90
2022/01/25 14:58:02;;;;;;;;;;;25.90;39.70;;;;;;3819968;23;19921;-89
2022/01/25 14:59:35;;;;;;;;;;;25.80;39.60;;;;;;3820956;23;19921;-91
2022/01/25 15:01:06;;;;;;;;;;;25.80;39.60;;;;;;3817660;23;19920;-90
2022/01/25 15:02:38;;;;;;;;;;;25.80;39.60;;;;;;3820310;23;19991;-90
2022/01/25 15:04:10;;;;;;;;;;;25.70;39.70;;;;;;3819534;23;19925;-92
2022/01/25 15:05:42;;;;;;;;;;;25.80;39.70;;;;;;3821339;23;19920;-90
2022/01/25 15:07:15;;;;;;;;;;;25.70;39.50;;;;;;3819580;23;19920;-90
2022/01/25 15:08:51;;;;;;;;;;;25.70;39.70;;;;;;3836732;23;19951;-92
2022/01/25 15:10:23;;;;;;;;;;;25.70;39.80;;;;;;3838535;23;19987;-90
2022/01/25 15:11:55;;;;;;;;;;;25.70;39.40;;;;;;3837348;23;19924;-89
2022/01/25 15:13:28;;;;;;;;;;;25.70;39.20;;;;;;3837008;23;19920;-90
2022/01/25 15:15:09;;;;;;;;;;;25.70;39.50;;;;;;3838728;23;20336;-89
2022/01/25 15:16:41;;;;;;;;;;;25.60;39.50;;;;;;3837125;23;20327;-90
2022/01/25 15:18:12;;;;;;;;;;;25.60;39.70;;;;;;3837377;23;19920;-89
2022/01/25 15:19:44;;;;;;;;;;;25.60;39.70;;;;;;3837037;23;19920;-90
2022/01/25 15:21:16;;;;;;;;;;;25.60;39.70;;;;;;3838187;23;19978;-90
2022/01/25 15:22:48;;;;;;;;;;;25.60;39.70;;;;;;3837524;23;19920;-92
2022/01/25 15:24:23;;;;;;;;;;;25.60;40.10;;;;;;3836724;23;20335;-89
2022/01/25 15:25:57;;;;;;;;;;;25.50;40.90;;;;;;3839513;23;19931;-91
2022/01/25 15:27:31;;;;;;;;;;;25.50;41.20;;;;;;3837652;23;20270;-91
2022/01/25 15:29:04;;;;;;;;;;;25.50;41.10;;;;;;3837017;23;19920;-89
2022/01/25 15:30:36;;;;;;;;;;;25.50;41.10;;;;;;3837523;23;20327;-90
2022/01/25 15:32:08;;;;;;;;;;;25.40;41.20;;;;;;3837398;23;19920;-90
2022/01/25 15:33:40;;;;;;;;;;;25.40;41.10;;;;;;3837086;23;19991;-89
2022/01/25 15:35:12;;;;;;;;;;;25.40;41.30;;;;;;3836927;23;19967;-91
2022/01/25 15:36:44;;;;;;;;;;;25.40;41.40;;;;;;3838016;23;19999;-90
2022/01/25 15:38:16;;;;;;;;;;;25.40;41.40;;;;;;3837100;23;20381;-89
2022/01/25 15:39:49;;;;;;;;;;;25.40;41.70;;;;;;3837368;23;19975;-89
2022/01/25 15:41:22;;;;;;;;;;;25.40;41.70;;;;;;3837199;23;19920;-89
2022/01/25 15:42:54;;;;;;;;;;;25.40;41.70;;;;;;3835912;23;20012;-89
2022/01/25 15:44:33;;;;;;;;;;;25.40;42.00;;;;;;3837144;23;20451;-88
2022/01/25 15:46:08;;;;;;;;;;;25.30;41.70;;;;;;3836558;23;19920;-89
2022/01/25 15:47:39;;;;;;;;;;;25.30;41.70;;;;;;3836171;23;19920;-89
2022/01/25 15:49:11;;;;;;;;;;;25.30;41.80;;;;;;3837533;23;19970;-89
2022/01/25 15:50:42;;;;;;;;;;;25.30;41.80;;;;;;3837535;23;19974;-89
2022/01/25 15:52:14;;;;;;;;;;;25.30;41.80;;;;;;3836877;23;19920;-89
2022/01/25 15:53:46;;;;;;;;;;;25.20;41.90;;;;;;3836346;23;20390;-89
2022/01/25 15:55:19;;;;;;;;;;;25.30;41.90;;;;;;3837310;23;19956;-88
2022/01/25 15:56:51;;;;;;;;;;;25.30;42.00;;;;;;3837435;23;19920;-90
2022/01/25 15:58:23;;;;;;;;;;;25.30;42.00;;;;;;3834884;23;19921;-89
2022/01/25 15:59:54;;;;;;;;;;;25.20;42.00;;;;;;3837672;23;19927;-88
2022/01/25 16:01:26;;;;;;;;;;;25.20;42.00;;;;;;3836815;23;19947;-89
2022/01/25 16:02:59;;;;;;;;;;;25.20;42.00;;;;;;3835916;23;19920;-88
2022/01/25 16:04:31;;;;;;;;;;;25.20;42.00;;;;;;3837235;23;19951;-90
2022/01/25 16:06:02;;;;;;;;;;;25.10;42.10;;;;;;3836806;23;19990;-90
2022/01/25 16:07:34;;;;;;;;;;;25.10;42.10;;;;;;3837135;23;19924;-90
2022/01/25 16:09:07;;;;;;;;;;;25.10;42.20;;;;;;3837413;23;19936;-89
2022/01/25 16:10:40;;;;;;;;;;;25.10;42.20;;;;;;3837124;23;19921;-88
2022/01/25 16:12:12;;;;;;;;;;;25.10;42.30;;;;;;3837755;23;19920;-88
2022/01/25 16:13:44;;;;;;;;;;;25.10;42.30;;;;;;3835342;23;19920;-89
2022/01/25 16:15:16;;;;;;;;;;;25.10;42.30;;;;;;3836770;23;19920;-88
2022/01/25 16:16:48;;;;;;;;;;;25.10;42.40;;;;;;3837701;23;19931;-89
2022/01/25 16:18:19;;;;;;;;;;;25.10;42.50;;;;;;3836128;23;19944;-88
2022/01/25 16:19:51;;;;;;;;;;;25.10;43.10;;;;;;3837104;23;19920;-88
2022/01/25 16:21:23;;;;;;;;;;;25.10;42.50;;;;;;3834035;23;19924;-88
2022/01/25 16:22:54;;;;;;;;;;;25.00;42.50;;;;;;3835982;23;19935;-90
2022/01/25 16:24:27;;;;;;;;;;;25.10;42.60;;;;;;3837142;23;20548;-88
2022/01/25 16:26:00;;;;;;;;;;;25.10;42.70;;;;;;3836911;23;19926;-88
2022/01/25 16:27:31;;;;;;;;;;;25.00;42.60;;;;;;3835778;23;19924;-89
2022/01/25 16:29:03;;;;;;;;;;;25.00;42.70;;;;;;3837233;23;19924;-90
2022/01/25 16:30:36;;;;;;;;;;;25.00;42.80;;;;;;3835875;23;19931;-89
2022/01/25 16:32:07;;;;;;;;;;;25.00;42.80;;;;;;3837597;23;19920;-89
2022/01/25 16:33:39;;;;;;;;;;;25.00;42.90;;;;;;3835139;23;19975;-88
2022/01/25 16:35:11;;;;;;;;;;;25.00;42.90;;;;;;3837809;23;19928;-90
2022/01/25 16:36:43;;;;;;;;;;;25.00;42.90;;;;;;3836367;23;20243;-87
2022/01/25 16:38:14;;;;;;;;;;;25.00;43.00;;;;;;3832336;23;19924;-87
2022/01/25 16:39:46;;;;;;;;;;;25.10;43.00;;;;;;3837694;23;19920;-89
2022/01/25 16:41:19;;;;;;;;;;;25.10;43.10;;;;;;3835677;23;19928;-90
2022/01/25 16:42:51;;;;;;;;;;;25.10;43.00;;;;;;3838287;23;19939;-89
2022/01/25 16:44:23;;;;;;;;;;;25.20;43.10;;;;;;3836146;23;19920;-89
2022/01/25 16:45:55;;;;;;;;;;;25.20;43.10;;;;;;3836219;23;19951;-89
2022/01/25 16:47:30;;;;;;;;;;;25.30;43.30;;;;;;3837419;23;19928;-89
2022/01/25 16:49:02;;;;;;;;;;;25.40;43.40;;;;;;3837386;23;19928;-89
2022/01/25 16:50:38;;;;;;;;;;;25.40;43.40;;;;;;3837455;23;20240;-90
2022/01/25 16:52:10;;;;;;;;;;;25.40;43.40;;;;;;3836759;23;20344;-91
2022/01/25 16:53:43;;;;;;;;;;;25.40;43.40;;;;;;3834657;23;19921;-89
2022/01/25 16:55:15;;;;;;;;;;;25.50;44.20;;;;;;3837343;23;20299;-88
2022/01/25 16:56:48;;;;;;;;;;;25.50;43.60;;;;;;3836548;23;19928;-88
2022/01/25 16:58:19;;;;;;;;;;;25.50;43.70;;;;;;3835656;23;20406;-89
2022/01/25 16:59:51;;;;;;;;;;;25.50;43.70;;;;;;3836675;23;19974;-88
2022/01/25 17:01:23;;;;;;;;;;;25.60;43.80;;;;;;3836131;23;19970;-88
2022/01/25 17:02:55;;;;;;;;;;;25.60;43.80;;;;;;3835831;23;19931;-89
2022/01/25 17:04:26;;;;;;;;;;;25.60;43.90;;;;;;3836533;23;19925;-89
2022/01/25 17:05:58;;;;;;;;;;;25.60;43.90;;;;;;3834715;23;20302;-89
2022/01/25 17:07:30;;;;;;;;;;;25.70;44.00;;;;;;3834976;23;19940;-89
2022/01/25 17:09:01;;;;;;;;;;;25.70;44.10;;;;;;3836436;23;19921;-89
2022/01/25 17:10:33;;;;;;;;;;;25.70;44.10;;;;;;3835259;23;20707;-89
2022/01/25 17:12:08;;;;;;;;;;;25.70;44.10;;;;;;3836756;23;19992;-89
2022/01/25 17:13:40;;;;;;;;;;;25.70;44.20;;;;;;3835901;23;19944;-89
2022/01/25 17:15:11;;;;;;;;;;;25.70;44.20;;;;;;3833234;23;19935;-88
2022/01/25 17:16:43;;;;;;;;;;;25.70;44.20;;;;;;3836941;23;19920;-89
2022/01/25 17:18:15;;;;;;;;;;;25.80;44.20;;;;;;3836266;23;20347;-89
2022/01/25 17:19:46;;;;;;;;;;;25.80;44.20;;;;;;3836491;23;19920;-89
2022/01/25 17:21:19;;;;;;;;;;;25.80;44.20;;;;;;3836795;23;19920;-88
2022/01/25 17:22:51;;;;;;;;;;;25.80;44.20;;;;;;3835567;23;19932;-88
2022/01/25 17:24:22;;;;;;;;;;;25.80;44.90;;;;;;3836143;23;19974;-89
2022/01/25 17:25:54;;;;;;;;;;;25.90;44.40;;;;;;3836359;23;19946;-88
2022/01/25 17:27:27;;;;;;;;;;;25.90;44.40;;;;;;3835737;23;19927;-90
2022/01/25 17:28:59;;;;;;;;;;;25.90;44.40;;;;;;3836351;23;20012;-89
2022/01/25 17:30:31;;;;;;;;;;;25.90;44.40;;;;;;3834125;23;19927;-88
2022/01/25 17:32:02;;;;;;;;;;;25.90;44.40;;;;;;3833872;23;19995;-89
2022/01/25 17:33:34;;;;;;;;;;;25.90;44.40;;;;;;3833528;23;20477;-89
2022/01/25 17:35:06;;;;;;;;;;;25.90;44.40;;;;;;3832628;23;19979;-88
2022/01/25 17:36:38;;;;;;;;;;;26.00;44.50;;;;;;3836823;23;19979;-88
2022/01/25 17:38:10;;;;;;;;;;;26.00;44.50;;;;;;3836115;23;19920;-88
2022/01/25 17:39:41;;;;;;;;;;;26.00;44.50;;;;;;3836969;23;20263;-88
2022/01/25 17:41:15;;;;;;;;;;;26.00;44.50;;;;;;3836952;23;19921;-89
2022/01/25 17:42:49;;;;;;;;;;;26.00;44.50;;;;;;3835952;23;19999;-89
2022/01/25 17:44:20;;;;;;;;;;;26.00;44.40;;;;;;3836477;23;19943;-88
2022/01/25 17:45:52;;;;;;;;;;;26.00;44.50;;;;;;3835129;23;19932;-89
2022/01/25 17:47:24;;;;;;;;;;;26.00;44.50;;;;;;3835059;23;19927;-88
2022/01/25 17:48:57;;;;;;;;;;;26.00;44.40;;;;;;3836173;23;19924;-88
2022/01/25 17:50:28;;;;;;;;;;;26.00;44.50;;;;;;3836725;23;19950;-89
2022/01/25 17:52:00;;;;;;;;;;;26.00;44.50;;;;;;3839044;23;19926;-89
2022/01/25 17:53:32;;;;;;;;;;;26.10;44.50;;;;;;3837287;23;19927;-89
2022/01/25 17:55:04;;;;;;;;;;;26.10;44.50;;;;;;3836830;23;20398;-88
2022/01/25 17:56:36;;;;;;;;;;;26.10;44.60;;;;;;3836311;23;19928;-88
2022/01/25 17:58:09;;;;;;;;;;;26.10;44.50;;;;;;3835824;23;19920;-89
2022/01/25 17:59:41;;;;;;;;;;;26.10;44.50;;;;;;3836528;23;20257;-88
2022/01/25 18:01:12;;;;;;;;;;;26.10;44.50;;;;;;3834811;23;19927;-89
2022/01/25 18:02:44;;;;;;;;;;;26.10;44.50;;;;;;3836179;23;19924;-88
2022/01/25 18:04:16;;;;;;;;;;;26.10;44.50;;;;;;3835665;23;19925;-88
2022/01/25 18:05:47;;;;;;;;;;;26.10;44.50;;;;;;3836466;23;19920;-88
2022/01/25 18:07:19;;;;;;;;;;;26.20;44.50;;;;;;3836120;23;20343;-89
2022/01/25 18:08:51;;;;;;;;;;;26.20;44.50;;;;;;3836529;23;20295;-90
2022/01/25 18:10:22;;;;;;;;;;;26.20;44.50;;;;;;3835786;23;19951;-89
2022/01/25 18:11:54;;;;;;;;;;;26.20;44.50;;;;;;3836429;23;19920;-89
2022/01/25 18:13:27;;;;;;;;;;;26.20;44.50;;;;;;3834790;23;19920;-89
2022/01/25 18:14:59;;;;;;;;;;;26.20;44.50;;;;;;3835788;23;19924;-89
2022/01/25 18:16:33;;;;;;;;;;;26.20;44.50;;;;;;3835506;23;19970;-89
2022/01/25 18:18:05;;;;;;;;;;;26.20;44.50;;;;;;3836286;23;19920;-89
2022/01/25 18:19:42;;;;;;;;;;;26.20;44.50;;;;;;3836051;23;19920;-88
2022/01/25 18:21:14;;;;;;;;;;;26.20;45.10;;;;;;3836623;23;19966;-88
2022/01/25 18:22:52;;;;;;;;;;;26.20;44.50;;;;;;3837193;23;19924;-88
2022/01/25 18:24:33;;;;;;;;;;;26.20;44.50;;;;;;3837101;23;19987;-88
2022/01/25 18:26:18;;;;;;;;;;;26.30;44.60;;;;;;3837390;23;19927;-88
2022/01/25 18:27:49;;;;;;;;;;;26.30;44.60;;;;;;3837234;23;19966;-88
2022/01/25 18:29:23;;;;;;;;;;;26.30;44.50;;;;;;3837492;23;19920;-89
2022/01/25 18:30:55;;;;;;;;;;;26.30;44.50;;;;;;3838206;23;19921;-88
2022/01/25 18:32:26;;;;;;;;;;;26.30;44.60;;;;;;3834413;23;19924;-88
2022/01/25 18:33:58;;;;;;;;;;;26.30;44.50;;;;;;3835016;23;19927;-89
2022/01/25 18:35:30;;;;;;;;;;;26.30;44.50;;;;;;3837550;23;19951;-89
2022/01/25 18:37:02;;;;;;;;;;;26.30;44.40;;;;;;3837935;23;20366;-89
2022/01/25 18:38:33;;;;;;;;;;;26.30;44.50;;;;;;3836336;23;20348;-88
2022/01/25 18:40:06;;;;;;;;;;;26.30;44.40;;;;;;3836938;23;19927;-88
2022/01/25 18:41:37;;;;;;;;;;;26.30;44.50;;;;;;3837849;23;19921;-89
2022/01/25 18:43:09;;;;;;;;;;;26.30;44.50;;;;;;3836023;23;19920;-89
2022/01/25 18:44:42;;;;;;;;;;;26.30;44.40;;;;;;3839573;23;19974;-89
2022/01/25 18:46:14;;;;;;;;;;;26.30;44.40;;;;;;3837265;23;20350;-89
2022/01/25 18:47:47;;;;;;;;;;;26.30;44.40;;;;;;3836932;23;19921;-89
2022/01/25 18:49:19;;;;;;;;;;;26.30;44.40;;;;;;3837346;23;19927;-89
2022/01/25 18:50:50;;;;;;;;;;;26.40;44.40;;;;;;3836810;23;20483;-90
2022/01/25 18:52:22;;;;;;;;;;;26.40;44.40;;;;;;3836591;23;19975;-90
2022/01/25 18:53:54;;;;;;;;;;;26.30;44.40;;;;;;3836071;23;19974;-91
2022/01/25 18:55:26;;;;;;;;;;;26.40;44.40;;;;;;3838000;23;20351;-91
2022/01/25 18:56:57;;;;;;;;;;;26.40;44.40;;;;;;3838274;23;19966;-90
2022/01/25 18:58:29;;;;;;;;;;;26.40;44.50;;;;;;3836322;23;20034;-91
2022/01/25 19:00:02;;;;;;;;;;;26.40;44.20;;;;;;3836327;23;19974;-90
2022/01/25 19:01:35;;;;;;;;;;;26.40;44.20;;;;;;3834924;23;19927;-90
2022/01/25 19:03:06;;;;;;;;;;;26.40;44.20;;;;;;3835273;23;19924;-89
2022/01/25 19:04:38;;;;;;;;;;;26.40;44.20;;;;;;3835808;23;19991;-89
2022/01/25 19:06:10;;;;;;;;;;;26.40;44.60;;;;;;3837083;23;19991;-90
2022/01/25 19:07:43;;;;;;;;;;;26.50;44.40;;;;;;3836462;23;19920;-90
2022/01/25 19:09:15;;;;;;;;;;;26.50;44.40;;;;;;3837222;23;19931;-90
2022/01/25 19:10:47;;;;;;;;;;;26.50;44.40;;;;;;3837279;23;19954;-91
2022/01/25 19:12:18;;;;;;;;;;;26.50;44.60;;;;;;3837037;23;20339;-89
2022/01/25 19:13:50;;;;;;;;;;;26.60;44.60;;;;;;3835644;23;19925;-88
2022/01/25 19:15:23;;;;;;;;;;;26.60;44.70;;;;;;3836294;23;19928;-88
2022/01/25 19:16:55;;;;;;;;;;;26.60;44.60;;;;;;3837736;23;20270;-89
2022/01/25 19:18:27;;;;;;;;;;;26.60;44.60;;;;;;3836918;23;20258;-88
2022/01/25 19:19:59;;;;;;;;;;;26.60;44.70;;;;;;3837554;23;19920;-88
2022/01/25 19:21:30;;;;;;;;;;;26.60;44.60;;;;;;3836869;23;19920;-89
2022/01/25 19:23:02;;;;;;;;;;;26.60;44.70;;;;;;3836949;23;19924;-89
2022/01/25 19:24:35;;;;;;;;;;;26.60;44.70;;;;;;3837459;23;19920;-88
2022/01/25 19:26:07;;;;;;;;;;;26.60;44.80;;;;;;3837274;23;19943;-88
2022/01/25 19:27:38;;;;;;;;;;;26.70;44.80;;;;;;3836386;23;19921;-85
2022/01/25 19:29:10;;;;;;;;;;;26.70;44.80;;;;;;3837051;23;20258;-86
2022/01/25 19:30:43;;;;;;;;;;;26.60;44.80;;;;;;3835335;23;20299;-86
2022/01/25 20:50:45;;;;;;;;;;;26.90;44.40;;;;;;3837010;23;20394;-88
2022/01/25 20:52:17;;;;;;;;;;;26.90;44.30;;;;;;3836320;23;19920;-88
2022/01/25 20:53:48;;;;;;;;;;;26.90;44.30;;;;;;3835246;23;19974;-88
2022/01/25 20:55:20;;;;;;;;;;;27.00;44.30;;;;;;3836993;23;19921;-89
2022/01/25 20:56:52;;;;;;;;;;;26.90;44.30;;;;;;3837132;23;19979;-88
2022/01/25 20:58:24;;;;;;;;;;;26.90;44.10;;;;;;3835886;23;19920;-88
2022/01/25 20:59:57;;;;;;;;;;;26.90;44.00;;;;;;3837314;23;19970;-89
2022/01/25 21:01:31;;;;;;;;;;;26.90;44.20;;;;;;3836058;23;20359;-88
2022/01/25 21:03:06;;;;;;;;;;;26.90;44.00;;;;;;3835480;23;19924;-89
2022/01/25 21:06:45;;;;;;;;;;;26.90;44.00;;;;;;3771735;23;19921;-88
2022/01/25 21:08:16;;;;;;;;;;;26.90;43.90;;;;;;3835948;23;19928;-88
2022/01/25 21:09:48;;;;;;;;;;;26.90;43.20;;;;;;3836229;23;19920;-86
2022/01/25 21:11:21;;;;;;;;;;;26.90;43.40;;;;;;3836662;23;19920;-89
2022/01/25 21:12:53;;;;;;;;;;;26.90;43.60;;;;;;3835727;23;20019;-87
2022/01/25 21:14:25;;;;;;;;;;;26.90;42.80;;;;;;3836359;23;19975;-86
2022/01/25 21:15:56;;;;;;;;;;;26.90;43.20;;;;;;3835198;23;19928;-87
2022/01/25 21:17:28;;;;;;;;;;;26.90;43.40;;;;;;3836865;23;19920;-87
2022/01/25 21:19:00;;;;;;;;;;;26.90;43.50;;;;;;3837113;23;20359;-87
2022/01/25 21:20:32;;;;;;;;;;;26.90;43.50;;;;;;3837068;23;19927;-88
2022/01/25 21:22:05;;;;;;;;;;;26.90;43.50;;;;;;3836925;23;19925;-87
2022/01/25 21:23:37;;;;;;;;;;;26.90;43.50;;;;;;3835653;23;19924;-87
2022/01/25 21:25:09;;;;;;;;;;;26.90;43.60;;;;;;3836803;23;20240;-87
2022/01/25 21:26:42;;;;;;;;;;;26.90;43.50;;;;;;3837273;23;19967;-88
2022/01/25 21:28:14;;;;;;;;;;;26.90;43.50;;;;;;3836388;23;20301;-87
2022/01/25 21:29:46;;;;;;;;;;;26.90;43.40;;;;;;3837075;23;19943;-87
2022/01/25 21:31:19;;;;;;;;;;;26.90;43.40;;;;;;3836121;23;19947;-87
2022/01/25 21:32:51;;;;;;;;;;;26.90;43.50;;;;;;3836225;23;19920;-87
2022/01/25 21:34:23;;;;;;;;;;;26.90;43.50;;;;;;3837240;23;19920;-87
2022/01/25 21:35:55;;;;;;;;;;;26.90;43.50;;;;;;3836369;23;20261;-87
2022/01/25 21:37:28;;;;;;;;;;;26.90;43.40;;;;;;3836598;23;19921;-87
2022/01/25 21:38:59;;;;;;;;;;;26.90;43.40;;;;;;3837146;23;20396;-88
2022/01/25 21:40:31;;;;;;;;;;;26.90;43.40;;;;;;3837417;23;19920;-87
2022/01/25 21:42:03;;;;;;;;;;;26.90;43.40;;;;;;3837278;23;19943;-86
2022/01/25 21:43:35;;;;;;;;;;;26.90;43.40;;;;;;3835153;23;19921;-87
2022/01/25 21:45:07;;;;;;;;;;;26.90;43.40;;;;;;3835589;23;19940;-87
2022/01/25 21:46:40;;;;;;;;;;;26.90;43.30;;;;;;3837199;23;20402;-87
2022/01/25 21:48:12;;;;;;;;;;;26.90;43.30;;;;;;3835881;23;19920;-88
2022/01/25 21:49:44;;;;;;;;;;;26.90;43.30;;;;;;3837160;23;19920;-87
2022/01/25 21:51:15;;;;;;;;;;;26.90;43.20;;;;;;3836648;23;19920;-88
2022/01/25 21:52:49;;;;;;;;;;;26.90;43.20;;;;;;3836512;23;19925;-88
2022/01/25 21:54:21;;;;;;;;;;;26.90;43.20;;;;;;3836619;23;20292;-87
2022/01/25 21:55:53;;;;;;;;;;;26.90;43.90;;;;;;3837725;23;19932;-87
2022/01/25 21:57:25;;;;;;;;;;;26.90;43.20;;;;;;3837796;23;20310;-87
2022/01/25 21:58:56;;;;;;;;;;;26.90;43.20;;;;;;3838321;23;19920;-88
2022/01/25 22:00:28;;;;;;;;;;;26.90;43.30;;;;;;3836884;23;19944;-87
2022/01/25 22:02:00;;;;;;;;;;;26.90;43.80;;;;;;3838290;23;20335;-88
2022/01/25 22:03:34;;;;;;;;;;;26.90;43.20;;;;;;3837009;23;19924;-87
2022/01/25 22:05:07;;;;;;;;;;;26.90;43.20;;;;;;3838372;23;20390;-87
2022/01/25 22:06:44;;;;;;;;;;;26.90;43.20;;;;;;3837820;23;20342;-87
2022/01/25 22:08:26;;;;;;;;;;;26.90;43.20;;;;;;3837902;23;20575;-87
2022/01/25 22:09:58;;;;;;;;;;;26.80;43.10;;;;;;3838477;23;19924;-86
2022/01/25 22:11:32;;;;;;;;;;;26.80;43.10;;;;;;3838842;23;19927;-87
2022/01/25 22:13:09;;;;;;;;;;;26.80;43.10;;;;;;3835293;23;19931;-86
2022/01/25 22:14:43;;;;;;;;;;;26.80;43.10;;;;;;3838170;23;19999;-87
2022/01/25 22:16:15;;;;;;;;;;;26.80;43.10;;;;;;3836916;23;19927;-87
2022/01/25 22:17:49;;;;;;;;;;;26.80;43.10;;;;;;3838168;23;19921;-87
2022/01/25 22:19:21;;;;;;;;;;;26.80;43.10;;;;;;3838006;23;19991;-87
2022/01/25 22:20:53;;;;;;;;;;;26.80;43.10;;;;;;3838263;23;19921;-87
2022/01/25 22:22:24;;;;;;;;;;;26.80;43.10;;;;;;3837722;23;20023;-87
2022/01/25 22:23:59;;;;;;;;;;;26.80;43.10;;;;;;3837031;23;19920;-87
2022/01/25 22:25:31;;;;;;;;;;;26.80;43.10;;;;;;3838207;23;20311;-87
2022/01/25 22:27:03;;;;;;;;;;;26.80;43.10;;;;;;3838124;23;19927;-87
2022/01/25 22:28:35;;;;;;;;;;;26.80;43.10;;;;;;3837948;23;19954;-86
2022/01/25 22:30:07;;;;;;;;;;;26.80;43.10;;;;;;3836443;23;19920;-88
2022/01/25 22:31:38;;;;;;;;;;;26.80;43.10;;;;;;3837744;23;20400;-87
2022/01/25 22:33:10;;;;;;;;;;;26.80;43.10;;;;;;3837052;23;19947;-87
2022/01/25 22:34:42;;;;;;;;;;;26.80;43.10;;;;;;3838366;23;19927;-87
2022/01/25 22:36:14;;;;;;;;;;;26.80;43.10;;;;;;3838204;23;19940;-87
2022/01/25 22:37:46;;;;;;;;;;;26.80;43.10;;;;;;3836922;23;19921;-87
2022/01/25 22:39:19;;;;;;;;;;;26.80;43.10;;;;;;3837883;23;20361;-87
2022/01/25 22:40:51;;;;;;;;;;;26.80;43.10;;;;;;3837907;23;19921;-87
2022/01/25 22:42:23;;;;;;;;;;;26.80;43.10;;;;;;3837047;23;19926;-87
2022/01/25 22:43:58;;;;;;;;;;;26.80;43.10;;;;;;3836223;23;19929;-87
2022/01/25 22:45:29;;;;;;;;;;;26.80;43.10;;;;;;3836559;23;19948;-88
2022/01/25 22:47:02;;;;;;;;;;;26.80;43.10;;;;;;3838585;23;20045;-87
2022/01/25 22:48:39;;;;;;;;;;;26.80;43.10;;;;;;3837321;23;19928;-87
2022/01/25 22:50:12;;;;;;;;;;;26.80;43.10;;;;;;3837685;23;20720;-88
2022/01/25 22:51:43;;;;;;;;;;;26.80;43.10;;;;;;3836750;23;19920;-87
2022/01/25 22:53:15;;;;;;;;;;;26.80;43.10;;;;;;3836857;23;19924;-87
2022/01/25 22:54:48;;;;;;;;;;;26.70;43.00;;;;;;3838188;23;19920;-87
2022/01/25 22:56:20;;;;;;;;;;;26.80;43.10;;;;;;3837909;23;19942;-87
2022/01/25 22:57:51;;;;;;;;;;;26.70;43.00;;;;;;3837738;23;19920;-87
2022/01/25 22:59:24;;;;;;;;;;;26.80;43.10;;;;;;3838411;23;19920;-87
2022/01/25 23:01:00;;;;;;;;;;;26.70;43.00;;;;;;3836304;23;19924;-87
2022/01/25 23:02:32;;;;;;;;;;;26.80;43.10;;;;;;3836924;23;20247;-87
2022/01/25 23:04:03;;;;;;;;;;;26.80;43.10;;;;;;3837720;23;19960;-87
2022/01/25 23:05:36;;;;;;;;;;;26.70;43.00;;;;;;3838083;23;20501;-87
2022/01/25 23:07:07;;;;;;;;;;;26.70;43.00;;;;;;3837438;23;19969;-87
2022/01/25 23:08:39;;;;;;;;;;;26.70;43.10;;;;;;3837360;23;19947;-87
2022/01/25 23:10:12;;;;;;;;;;;26.70;43.00;;;;;;3837896;23;19920;-87
2022/01/25 23:11:44;;;;;;;;;;;26.70;43.00;;;;;;3838279;23;19942;-87
2022/01/25 23:15:16;;;;;;;;;;;26.70;43.00;;;;;;3836424;23;19923;-87